This is the latest recevied weather packets stored in our database for station/object SP8AQK-13. If no packets are shown the sender has not sent any weather packets the latest 10 day(s).
| Time | Temp. | Humidity | Pressure | Rain* | Wind** | Luminosity | Snow |
|---|---|---|---|---|---|---|---|
| 1777608190 | 5° C | 64% | 1029.6 hPa | - | - | - | - |
| 1777606989 | 4.44° C | 69% | 1029.6 hPa | - | - | - | - |
| 1777605789 | 4.44° C | 72% | 1029.6 hPa | - | - | - | - |
| 1777604588 | 4.44° C | 71% | 1029.8 hPa | - | - | - | - |
| 1777603387 | 4.44° C | 69% | 1029.7 hPa | - | - | - | - |
| 1777602187 | 4.44° C | 70% | 1029.8 hPa | - | - | - | - |
| 1777600986 | 4.44° C | 69% | 1029.5 hPa | - | - | - | - |
| 1777582975 | 5° C | 56% | 1029.8 hPa | - | - | - | - |
| 1777579373 | 3.89° C | 57% | 1029.9 hPa | - | - | - | - |
| 1777576971 | 4.44° C | 52% | 1029.8 hPa | - | - | - | - |
| 1777564964 | 11.11° C | 35% | 1028 hPa | - | - | - | - |
| 1777557760 | 13.33° C | 36% | 1028.5 hPa | - | - | - | - |
| 1777556559 | 12.22° C | 37% | 1029 hPa | - | - | - | - |
| 1777555358 | 13.33° C | 35% | 1029.1 hPa | - | - | - | - |
| 1777552957 | 13.33° C | 34% | 1029.3 hPa | - | - | - | - |
| 1777551757 | 12.78° C | 36% | 1029.8 hPa | - | - | - | - |
| 1777548154 | 13.89° C | 33% | 1030.3 hPa | - | - | - | - |
| 1777544552 | 13.33° C | 34% | 1031 hPa | - | - | - | - |
| 1777543351 | 13.89° C | 33% | 1031.2 hPa | - | - | - | - |
| 1777540950 | 13.89° C | 33% | 1031.4 hPa | - | - | - | - |
| 1777539749 | 12.22° C | 35% | 1031.6 hPa | - | - | - | - |
| 1777537347 | 10.56° C | 37% | 1032.1 hPa | - | - | - | - |
| 1777536147 | 10° C | 38% | 1032.5 hPa | - | - | - | - |
| 1777534948 | 11.67° C | 38% | 1032.2 hPa | - | - | - | - |
| 1777533745 | 10° C | 43% | 1032.5 hPa | - | - | - | - |
* Rain since midnight (hover to see other rain measurements)
** Current wind speed in m/s (hover to see current wind gust speed)